sensor_id;sensor_type;location;lat;lon;timestamp;P1;durP1;ratioP1;P2;durP2;ratioP2
63555;SDS011;49700;48.072;7.800;2023-07-02T00:01:07;5.47;;;1.70;;
63555;SDS011;49700;48.072;7.800;2023-07-02T00:03:34;2.53;;;1.90;;
63555;SDS011;49700;48.072;7.800;2023-07-02T00:05:59;2.50;;;1.80;;
63555;SDS011;49700;48.072;7.800;2023-07-02T00:08:25;2.40;;;2.20;;
63555;SDS011;49700;48.072;7.800;2023-07-02T00:10:50;3.50;;;1.93;;
63555;SDS011;49700;48.072;7.800;2023-07-02T00:13:19;3.40;;;2.17;;
63555;SDS011;49700;48.072;7.800;2023-07-02T00:15:44;2.30;;;2.10;;
63555;SDS011;49700;48.072;7.800;2023-07-02T00:18:10;1.80;;;1.70;;
63555;SDS011;49700;48.072;7.800;2023-07-02T00:20:41;2.17;;;2.07;;
63555;SDS011;49700;48.072;7.800;2023-07-02T00:23:07;5.23;;;2.10;;
63555;SDS011;49700;48.072;7.800;2023-07-02T00:25:34;3.00;;;2.40;;
63555;SDS011;49700;48.072;7.800;2023-07-02T00:28:00;2.20;;;2.10;;
63555;SDS011;49700;48.072;7.800;2023-07-02T00:30:26;2.20;;;2.00;;
63555;SDS011;49700;48.072;7.800;2023-07-02T00:32:51;2.07;;;1.87;;
63555;SDS011;49700;48.072;7.800;2023-07-02T00:35:17;1.87;;;1.67;;
63555;SDS011;49700;48.072;7.800;2023-07-02T00:37:42;2.80;;;2.00;;
63555;SDS011;49700;48.072;7.800;2023-07-02T00:40:08;2.80;;;1.90;;
63555;SDS011;49700;48.072;7.800;2023-07-02T00:42:34;3.43;;;2.00;;
63555;SDS011;49700;48.072;7.800;2023-07-02T00:44:59;3.07;;;2.30;;
63555;SDS011;49700;48.072;7.800;2023-07-02T00:47:28;2.63;;;2.43;;
63555;SDS011;49700;48.072;7.800;2023-07-02T00:49:59;3.10;;;2.47;;
63555;SDS011;49700;48.072;7.800;2023-07-02T00:52:26;3.07;;;2.43;;
63555;SDS011;49700;48.072;7.800;2023-07-02T00:54:51;2.43;;;2.23;;
63555;SDS011;49700;48.072;7.800;2023-07-02T00:57:17;4.20;;;2.93;;
63555;SDS011;49700;48.072;7.800;2023-07-02T00:59:43;4.97;;;2.50;;
63555;SDS011;49700;48.072;7.800;2023-07-02T01:02:09;3.87;;;2.30;;
63555;SDS011;49700;48.072;7.800;2023-07-02T01:04:38;3.57;;;2.43;;
63555;SDS011;49700;48.072;7.800;2023-07-02T01:07:05;3.53;;;2.20;;
63555;SDS011;49700;48.072;7.800;2023-07-02T01:09:36;2.70;;;2.03;;
63555;SDS011;49700;48.072;7.800;2023-07-02T01:12:03;2.40;;;2.20;;
63555;SDS011;49700;48.072;7.800;2023-07-02T01:14:36;5.50;;;2.00;;
63555;SDS011;49700;48.072;7.800;2023-07-02T01:17:05;2.27;;;1.87;;
63555;SDS011;49700;48.072;7.800;2023-07-02T01:22:25;3.20;;;2.90;;
63555;SDS011;49700;48.072;7.800;2023-07-02T01:24:55;3.40;;;2.27;;
63555;SDS011;49700;48.072;7.800;2023-07-02T01:27:21;3.37;;;2.20;;
63555;SDS011;49700;48.072;7.800;2023-07-02T01:29:50;2.93;;;2.63;;
63555;SDS011;49700;48.072;7.800;2023-07-02T01:32:17;3.40;;;2.67;;
63555;SDS011;49700;48.072;7.800;2023-07-02T01:34:44;3.00;;;2.70;;
63555;SDS011;49700;48.072;7.800;2023-07-02T01:37:13;2.87;;;2.60;;
63555;SDS011;49700;48.072;7.800;2023-07-02T01:39:42;3.30;;;2.27;;
63555;SDS011;49700;48.072;7.800;2023-07-02T01:42:09;4.80;;;2.80;;
63555;SDS011;49700;48.072;7.800;2023-07-02T01:44:41;4.17;;;2.97;;
63555;SDS011;49700;48.072;7.800;2023-07-02T01:47:07;3.63;;;2.70;;
63555;SDS011;49700;48.072;7.800;2023-07-02T01:49:33;2.90;;;2.70;;
63555;SDS011;49700;48.072;7.800;2023-07-02T01:52:00;3.30;;;2.77;;
63555;SDS011;49700;48.072;7.800;2023-07-02T01:54:26;3.97;;;2.57;;
63555;SDS011;49700;48.072;7.800;2023-07-02T01:56:55;2.83;;;2.43;;
63555;SDS011;49700;48.072;7.800;2023-07-02T01:59:24;3.23;;;2.77;;
63555;SDS011;49700;48.072;7.800;2023-07-02T02:01:51;3.60;;;2.23;;
63555;SDS011;49700;48.072;7.800;2023-07-02T02:04:17;6.90;;;2.60;;
63555;SDS011;49700;48.072;7.800;2023-07-02T02:06:43;2.73;;;2.53;;
63555;SDS011;49700;48.072;7.800;2023-07-02T02:09:08;3.90;;;2.80;;
63555;SDS011;49700;48.072;7.800;2023-07-02T02:11:40;4.27;;;2.70;;
63555;SDS011;49700;48.072;7.800;2023-07-02T02:14:08;4.47;;;3.37;;
63555;SDS011;49700;48.072;7.800;2023-07-02T02:16:33;3.33;;;2.97;;
63555;SDS011;49700;48.072;7.800;2023-07-02T02:19:00;2.43;;;2.23;;
63555;SDS011;49700;48.072;7.800;2023-07-02T02:21:26;2.60;;;2.40;;
63555;SDS011;49700;48.072;7.800;2023-07-02T02:23:52;3.13;;;2.83;;
63555;SDS011;49700;48.072;7.800;2023-07-02T02:26:17;3.53;;;3.20;;
63555;SDS011;49700;48.072;7.800;2023-07-02T02:28:43;3.30;;;2.77;;
63555;SDS011;49700;48.072;7.800;2023-07-02T02:31:09;3.40;;;3.10;;
63555;SDS011;49700;48.072;7.800;2023-07-02T02:33:35;3.10;;;2.50;;
63555;SDS011;49700;48.072;7.800;2023-07-02T02:36:02;3.50;;;2.80;;
63555;SDS011;49700;48.072;7.800;2023-07-02T02:38:28;6.20;;;2.63;;
63555;SDS011;49700;48.072;7.800;2023-07-02T02:40:54;4.37;;;3.33;;
63555;SDS011;49700;48.072;7.800;2023-07-02T02:43:19;3.20;;;2.50;;
63555;SDS011;49700;48.072;7.800;2023-07-02T02:45:46;3.17;;;2.67;;
63555;SDS011;49700;48.072;7.800;2023-07-02T02:48:12;8.73;;;3.63;;
63555;SDS011;49700;48.072;7.800;2023-07-02T02:50:37;3.00;;;2.53;;
63555;SDS011;49700;48.072;7.800;2023-07-02T02:53:09;3.27;;;2.40;;
63555;SDS011;49700;48.072;7.800;2023-07-02T02:55:35;2.90;;;2.63;;
63555;SDS011;49700;48.072;7.800;2023-07-02T02:58:01;3.90;;;2.77;;
63555;SDS011;49700;48.072;7.800;2023-07-02T03:00:26;6.67;;;3.33;;
63555;SDS011;49700;48.072;7.800;2023-07-02T03:02:52;3.20;;;2.90;;
63555;SDS011;49700;48.072;7.800;2023-07-02T03:05:17;3.13;;;2.80;;
63555;SDS011;49700;48.072;7.800;2023-07-02T03:07:43;3.10;;;2.33;;
63555;SDS011;49700;48.072;7.800;2023-07-02T03:10:08;3.43;;;3.00;;
63555;SDS011;49700;48.072;7.800;2023-07-02T03:12:35;7.70;;;4.47;;
63555;SDS011;49700;48.072;7.800;2023-07-02T03:15:00;3.47;;;2.57;;
63555;SDS011;49700;48.072;7.800;2023-07-02T03:17:26;3.07;;;2.80;;
63555;SDS011;49700;48.072;7.800;2023-07-02T03:19:51;5.83;;;3.30;;
63555;SDS011;49700;48.072;7.800;2023-07-02T03:22:17;3.17;;;2.23;;
63555;SDS011;49700;48.072;7.800;2023-07-02T03:24:43;3.30;;;2.90;;
63555;SDS011;49700;48.072;7.800;2023-07-02T03:27:08;9.60;;;3.87;;
63555;SDS011;49700;48.072;7.800;2023-07-02T03:29:34;4.33;;;3.60;;
63555;SDS011;49700;48.072;7.800;2023-07-02T03:32:00;3.80;;;3.20;;
63555;SDS011;49700;48.072;7.800;2023-07-02T03:34:26;6.60;;;3.37;;
63555;SDS011;49700;48.072;7.800;2023-07-02T03:36:52;6.10;;;3.90;;
63555;SDS011;49700;48.072;7.800;2023-07-02T03:39:17;5.80;;;3.53;;
63555;SDS011;49700;48.072;7.800;2023-07-02T03:41:43;3.67;;;2.83;;
63555;SDS011;49700;48.072;7.800;2023-07-02T03:44:09;5.90;;;3.37;;
63555;SDS011;49700;48.072;7.800;2023-07-02T03:46:34;4.00;;;3.13;;
63555;SDS011;49700;48.072;7.800;2023-07-02T03:49:00;4.07;;;3.70;;
63555;SDS011;49700;48.072;7.800;2023-07-02T03:51:25;6.67;;;3.07;;
63555;SDS011;49700;48.072;7.800;2023-07-02T03:53:51;5.87;;;3.37;;
63555;SDS011;49700;48.072;7.800;2023-07-02T03:56:16;3.60;;;3.20;;
63555;SDS011;49700;48.072;7.800;2023-07-02T03:58:42;3.93;;;2.97;;
63555;SDS011;49700;48.072;7.800;2023-07-02T04:01:08;5.63;;;3.37;;
63555;SDS011;49700;48.072;7.800;2023-07-02T04:03:33;3.67;;;3.00;;
63555;SDS011;49700;48.072;7.800;2023-07-02T04:05:59;5.57;;;3.90;;
63555;SDS011;49700;48.072;7.800;2023-07-02T04:08:25;5.97;;;3.77;;
63555;SDS011;49700;48.072;7.800;2023-07-02T04:10:50;4.20;;;3.60;;
63555;SDS011;49700;48.072;7.800;2023-07-02T04:13:16;5.93;;;3.60;;
63555;SDS011;49700;48.072;7.800;2023-07-02T04:15:41;4.70;;;3.87;;
63555;SDS011;49700;48.072;7.800;2023-07-02T04:18:07;4.50;;;3.67;;
63555;SDS011;49700;48.072;7.800;2023-07-02T04:20:33;5.10;;;3.57;;
63555;SDS011;49700;48.072;7.800;2023-07-02T04:22:59;6.90;;;4.30;;
63555;SDS011;49700;48.072;7.800;2023-07-02T04:25:24;7.57;;;4.07;;
63555;SDS011;49700;48.072;7.800;2023-07-02T04:27:50;12.63;;;5.00;;
63555;SDS011;49700;48.072;7.800;2023-07-02T04:30:15;6.83;;;4.40;;
63555;SDS011;49700;48.072;7.800;2023-07-02T04:32:41;7.00;;;4.20;;
63555;SDS011;49700;48.072;7.800;2023-07-02T04:35:06;8.20;;;5.03;;
63555;SDS011;49700;48.072;7.800;2023-07-02T04:37:33;9.23;;;5.57;;
63555;SDS011;49700;48.072;7.800;2023-07-02T04:39:58;8.40;;;6.37;;
63555;SDS011;49700;48.072;7.800;2023-07-02T04:42:25;8.57;;;5.90;;
63555;SDS011;49700;48.072;7.800;2023-07-02T04:44:55;9.27;;;5.77;;
63555;SDS011;49700;48.072;7.800;2023-07-02T04:47:21;15.03;;;5.97;;
63555;SDS011;49700;48.072;7.800;2023-07-02T04:49:46;10.10;;;5.87;;
63555;SDS011;49700;48.072;7.800;2023-07-02T04:52:11;12.90;;;6.27;;
63555;SDS011;49700;48.072;7.800;2023-07-02T04:54:37;9.40;;;6.93;;
63555;SDS011;49700;48.072;7.800;2023-07-02T04:57:03;11.60;;;7.37;;
63555;SDS011;49700;48.072;7.800;2023-07-02T04:59:28;11.50;;;8.03;;
63555;SDS011;49700;48.072;7.800;2023-07-02T05:01:53;10.23;;;7.97;;
63555;SDS011;49700;48.072;7.800;2023-07-02T05:04:19;17.47;;;8.27;;
63555;SDS011;49700;48.072;7.800;2023-07-02T05:06:44;14.07;;;6.80;;
63555;SDS011;49700;48.072;7.800;2023-07-02T05:09:10;11.33;;;8.63;;
63555;SDS011;49700;48.072;7.800;2023-07-02T05:11:35;13.00;;;7.87;;
63555;SDS011;49700;48.072;7.800;2023-07-02T05:14:01;17.10;;;8.30;;
63555;SDS011;49700;48.072;7.800;2023-07-02T05:16:26;14.57;;;7.53;;
63555;SDS011;49700;48.072;7.800;2023-07-02T05:18:52;13.27;;;8.50;;
63555;SDS011;49700;48.072;7.800;2023-07-02T05:21:17;15.20;;;9.87;;
63555;SDS011;49700;48.072;7.800;2023-07-02T05:23:43;13.60;;;9.10;;
63555;SDS011;49700;48.072;7.800;2023-07-02T05:26:09;10.93;;;7.97;;
63555;SDS011;49700;48.072;7.800;2023-07-02T05:28:34;15.80;;;9.07;;
63555;SDS011;49700;48.072;7.800;2023-07-02T05:30:59;15.23;;;8.90;;
63555;SDS011;49700;48.072;7.800;2023-07-02T05:33:25;16.33;;;9.40;;
63555;SDS011;49700;48.072;7.800;2023-07-02T05:35:50;15.20;;;10.30;;
63555;SDS011;49700;48.072;7.800;2023-07-02T05:38:17;13.43;;;9.90;;
63555;SDS011;49700;48.072;7.800;2023-07-02T05:40:43;17.20;;;9.43;;
63555;SDS011;49700;48.072;7.800;2023-07-02T05:43:09;13.37;;;9.20;;
63555;SDS011;49700;48.072;7.800;2023-07-02T05:45:34;16.87;;;9.23;;
63555;SDS011;49700;48.072;7.800;2023-07-02T05:48:00;14.53;;;10.50;;
63555;SDS011;49700;48.072;7.800;2023-07-02T05:50:25;18.33;;;10.27;;
63555;SDS011;49700;48.072;7.800;2023-07-02T05:52:50;15.83;;;10.63;;
63555;SDS011;49700;48.072;7.800;2023-07-02T05:55:16;14.87;;;9.43;;
63555;SDS011;49700;48.072;7.800;2023-07-02T05:57:42;22.90;;;10.80;;
63555;SDS011;49700;48.072;7.800;2023-07-02T06:00:07;15.70;;;10.53;;
63555;SDS011;49700;48.072;7.800;2023-07-02T06:02:39;14.53;;;10.47;;
63555;SDS011;49700;48.072;7.800;2023-07-02T06:05:04;16.67;;;10.70;;
63555;SDS011;49700;48.072;7.800;2023-07-02T06:07:30;16.07;;;12.83;;
63555;SDS011;49700;48.072;7.800;2023-07-02T06:09:55;17.23;;;10.37;;
63555;SDS011;49700;48.072;7.800;2023-07-02T06:12:21;20.87;;;11.97;;
63555;SDS011;49700;48.072;7.800;2023-07-02T06:14:47;17.57;;;11.40;;
63555;SDS011;49700;48.072;7.800;2023-07-02T06:17:12;24.03;;;12.33;;
63555;SDS011;49700;48.072;7.800;2023-07-02T06:19:38;19.77;;;12.53;;
63555;SDS011;49700;48.072;7.800;2023-07-02T06:22:04;16.87;;;10.60;;
63555;SDS011;49700;48.072;7.800;2023-07-02T06:24:29;16.67;;;11.17;;
63555;SDS011;49700;48.072;7.800;2023-07-02T06:26:55;16.83;;;11.80;;
63555;SDS011;49700;48.072;7.800;2023-07-02T06:29:21;21.73;;;11.37;;
63555;SDS011;49700;48.072;7.800;2023-07-02T06:31:48;19.00;;;12.57;;
63555;SDS011;49700;48.072;7.800;2023-07-02T06:34:13;16.50;;;11.70;;
63555;SDS011;49700;48.072;7.800;2023-07-02T06:36:39;18.20;;;12.83;;
63555;SDS011;49700;48.072;7.800;2023-07-02T06:39:05;23.60;;;13.20;;
63555;SDS011;49700;48.072;7.800;2023-07-02T06:41:30;17.93;;;12.13;;
63555;SDS011;49700;48.072;7.800;2023-07-02T06:43:56;19.00;;;11.70;;
63555;SDS011;49700;48.072;7.800;2023-07-02T06:46:21;20.43;;;11.30;;
63555;SDS011;49700;48.072;7.800;2023-07-02T06:48:47;20.10;;;13.60;;
63555;SDS011;49700;48.072;7.800;2023-07-02T06:51:12;22.40;;;12.70;;
63555;SDS011;49700;48.072;7.800;2023-07-02T06:53:40;18.20;;;12.03;;
63555;SDS011;49700;48.072;7.800;2023-07-02T06:56:08;22.90;;;14.77;;
63555;SDS011;49700;48.072;7.800;2023-07-02T06:58:34;19.10;;;13.40;;
63555;SDS011;49700;48.072;7.800;2023-07-02T07:01:00;21.37;;;14.20;;
63555;SDS011;49700;48.072;7.800;2023-07-02T07:03:25;21.50;;;13.90;;
63555;SDS011;49700;48.072;7.800;2023-07-02T07:05:51;23.63;;;14.33;;
63555;SDS011;49700;48.072;7.800;2023-07-02T07:08:16;23.93;;;13.67;;
63555;SDS011;49700;48.072;7.800;2023-07-02T07:10:42;17.10;;;12.80;;
63555;SDS011;49700;48.072;7.800;2023-07-02T07:13:07;20.43;;;13.00;;
63555;SDS011;49700;48.072;7.800;2023-07-02T07:15:33;28.37;;;15.20;;
63555;SDS011;49700;48.072;7.800;2023-07-02T07:18:02;14.97;;;12.27;;
63555;SDS011;49700;48.072;7.800;2023-07-02T07:20:28;24.90;;;13.47;;
63555;SDS011;49700;48.072;7.800;2023-07-02T07:22:54;19.20;;;13.17;;
63555;SDS011;49700;48.072;7.800;2023-07-02T07:25:19;27.20;;;14.07;;
63555;SDS011;49700;48.072;7.800;2023-07-02T07:27:45;19.83;;;12.10;;
63555;SDS011;49700;48.072;7.800;2023-07-02T07:30:10;20.77;;;12.97;;
63555;SDS011;49700;48.072;7.800;2023-07-02T07:32:36;21.77;;;13.60;;
63555;SDS011;49700;48.072;7.800;2023-07-02T07:35:02;22.17;;;13.87;;
63555;SDS011;49700;48.072;7.800;2023-07-02T07:37:27;20.83;;;15.17;;
63555;SDS011;49700;48.072;7.800;2023-07-02T07:39:56;20.70;;;15.50;;
63555;SDS011;49700;48.072;7.800;2023-07-02T07:42:21;20.23;;;12.73;;
63555;SDS011;49700;48.072;7.800;2023-07-02T07:44:47;23.93;;;15.43;;
63555;SDS011;49700;48.072;7.800;2023-07-02T07:47:12;22.07;;;14.20;;
63555;SDS011;49700;48.072;7.800;2023-07-02T07:49:38;19.97;;;13.90;;
63555;SDS011;49700;48.072;7.800;2023-07-02T07:52:03;23.33;;;13.70;;
63555;SDS011;49700;48.072;7.800;2023-07-02T07:54:31;20.80;;;13.73;;
63555;SDS011;49700;48.072;7.800;2023-07-02T07:56:57;22.00;;;14.40;;
63555;SDS011;49700;48.072;7.800;2023-07-02T07:59:41;25.03;;;15.30;;
63555;SDS011;49700;48.072;7.800;2023-07-02T08:02:07;22.40;;;14.33;;
63555;SDS011;49700;48.072;7.800;2023-07-02T08:04:32;21.00;;;14.70;;
63555;SDS011;49700;48.072;7.800;2023-07-02T08:06:58;22.10;;;14.63;;
63555;SDS011;49700;48.072;7.800;2023-07-02T08:09:24;26.13;;;15.93;;
63555;SDS011;49700;48.072;7.800;2023-07-02T08:11:50;24.57;;;14.77;;
63555;SDS011;49700;48.072;7.800;2023-07-02T08:14:16;22.73;;;15.90;;
63555;SDS011;49700;48.072;7.800;2023-07-02T08:16:43;23.87;;;15.87;;
63555;SDS011;49700;48.072;7.800;2023-07-02T08:19:09;23.63;;;18.10;;
63555;SDS011;49700;48.072;7.800;2023-07-02T08:21:35;28.53;;;16.13;;
63555;SDS011;49700;48.072;7.800;2023-07-02T08:24:00;26.30;;;15.87;;
63555;SDS011;49700;48.072;7.800;2023-07-02T08:26:26;25.93;;;15.83;;
63555;SDS011;49700;48.072;7.800;2023-07-02T08:28:51;23.07;;;15.03;;
63555;SDS011;49700;48.072;7.800;2023-07-02T08:31:16;23.93;;;16.20;;
63555;SDS011;49700;48.072;7.800;2023-07-02T08:33:42;27.17;;;15.00;;
63555;SDS011;49700;48.072;7.800;2023-07-02T08:36:07;26.07;;;15.17;;
63555;SDS011;49700;48.072;7.800;2023-07-02T08:38:32;24.07;;;16.00;;
63555;SDS011;49700;48.072;7.800;2023-07-02T08:40:58;24.30;;;14.70;;
63555;SDS011;49700;48.072;7.800;2023-07-02T08:43:23;23.60;;;15.20;;
63555;SDS011;49700;48.072;7.800;2023-07-02T08:45:51;23.10;;;13.70;;
63555;SDS011;49700;48.072;7.800;2023-07-02T08:48:16;25.40;;;16.00;;
63555;SDS011;49700;48.072;7.800;2023-07-02T08:50:47;24.13;;;15.13;;
63555;SDS011;49700;48.072;7.800;2023-07-02T08:53:14;27.47;;;16.30;;
63555;SDS011;49700;48.072;7.800;2023-07-02T08:55:39;26.27;;;16.07;;
63555;SDS011;49700;48.072;7.800;2023-07-02T08:58:05;20.67;;;14.63;;
63555;SDS011;49700;48.072;7.800;2023-07-02T09:00:30;25.50;;;15.27;;
63555;SDS011;49700;48.072;7.800;2023-07-02T09:03:10;19.83;;;14.33;;
63555;SDS011;49700;48.072;7.800;2023-07-02T09:05:46;27.38;;;16.20;;
63555;SDS011;49700;48.072;7.800;2023-07-02T09:08:13;26.90;;;15.57;;
63555;SDS011;49700;48.072;7.800;2023-07-02T09:10:48;30.70;;;16.97;;
63555;SDS011;49700;48.072;7.800;2023-07-02T09:13:13;22.43;;;14.80;;
63555;SDS011;49700;48.072;7.800;2023-07-02T09:15:39;21.57;;;16.17;;
63555;SDS011;49700;48.072;7.800;2023-07-02T09:18:20;19.63;;;14.87;;
63555;SDS011;49700;48.072;7.800;2023-07-02T09:20:53;25.20;;;14.80;;
63555;SDS011;49700;48.072;7.800;2023-07-02T09:23:20;27.17;;;17.03;;
63555;SDS011;49700;48.072;7.800;2023-07-02T09:25:45;20.47;;;14.00;;
63555;SDS011;49700;48.072;7.800;2023-07-02T09:28:17;19.53;;;14.10;;
63555;SDS011;49700;48.072;7.800;2023-07-02T09:30:54;22.90;;;16.20;;
63555;SDS011;49700;48.072;7.800;2023-07-02T09:33:24;23.10;;;15.33;;
63555;SDS011;49700;48.072;7.800;2023-07-02T09:35:50;21.03;;;14.50;;
63555;SDS011;49700;48.072;7.800;2023-07-02T09:38:18;27.13;;;16.43;;
63555;SDS011;49700;48.072;7.800;2023-07-02T09:40:52;22.73;;;13.57;;
63555;SDS011;49700;48.072;7.800;2023-07-02T09:43:18;22.83;;;15.10;;
63555;SDS011;49700;48.072;7.800;2023-07-02T09:45:45;26.10;;;15.97;;
63555;SDS011;49700;48.072;7.800;2023-07-02T09:48:15;24.20;;;15.90;;
63555;SDS011;49700;48.072;7.800;2023-07-02T09:50:42;21.63;;;16.13;;
63555;SDS011;49700;48.072;7.800;2023-07-02T09:53:09;22.73;;;14.70;;
63555;SDS011;49700;48.072;7.800;2023-07-02T09:55:35;27.00;;;17.50;;
63555;SDS011;49700;48.072;7.800;2023-07-02T09:58:01;21.07;;;15.43;;
63555;SDS011;49700;48.072;7.800;2023-07-02T10:00:27;23.03;;;14.83;;
63555;SDS011;49700;48.072;7.800;2023-07-02T10:02:52;21.37;;;15.57;;
63555;SDS011;49700;48.072;7.800;2023-07-02T10:05:30;22.47;;;16.00;;
63555;SDS011;49700;48.072;7.800;2023-07-02T10:07:58;22.07;;;16.13;;
63555;SDS011;49700;48.072;7.800;2023-07-02T10:10:36;26.07;;;16.20;;
63555;SDS011;49700;48.072;7.800;2023-07-02T10:13:01;21.00;;;15.47;;
63555;SDS011;49700;48.072;7.800;2023-07-02T10:15:27;21.13;;;15.43;;
63555;SDS011;49700;48.072;7.800;2023-07-02T10:17:57;24.33;;;14.47;;
63555;SDS011;49700;48.072;7.800;2023-07-02T10:20:33;22.70;;;15.60;;
63555;SDS011;49700;48.072;7.800;2023-07-02T10:23:04;22.00;;;15.90;;
63555;SDS011;49700;48.072;7.800;2023-07-02T10:25:31;23.63;;;15.27;;
63555;SDS011;49700;48.072;7.800;2023-07-02T10:27:59;20.77;;;15.80;;
63555;SDS011;49700;48.072;7.800;2023-07-02T10:30:33;23.90;;;15.47;;
63555;SDS011;49700;48.072;7.800;2023-07-02T10:33:10;19.93;;;14.30;;
63555;SDS011;49700;48.072;7.800;2023-07-02T10:35:40;18.40;;;14.63;;
63555;SDS011;49700;48.072;7.800;2023-07-02T10:40:53;18.90;;;14.13;;
63555;SDS011;49700;48.072;7.800;2023-07-02T10:43:24;27.93;;;16.20;;
63555;SDS011;49700;48.072;7.800;2023-07-02T10:45:50;22.77;;;14.23;;
63555;SDS011;49700;48.072;7.800;2023-07-02T10:48:15;19.63;;;14.33;;
63555;SDS011;49700;48.072;7.800;2023-07-02T10:50:41;24.93;;;16.13;;
63555;SDS011;49700;48.072;7.800;2023-07-02T10:53:06;20.73;;;15.50;;
63555;SDS011;49700;48.072;7.800;2023-07-02T10:55:42;23.40;;;15.97;;
63555;SDS011;49700;48.072;7.800;2023-07-02T10:58:09;21.90;;;15.43;;
63555;SDS011;49700;48.072;7.800;2023-07-02T11:00:45;24.07;;;17.10;;
63555;SDS011;49700;48.072;7.800;2023-07-02T11:03:21;18.87;;;14.73;;
63555;SDS011;49700;48.072;7.800;2023-07-02T11:05:48;19.27;;;14.60;;
63555;SDS011;49700;48.072;7.800;2023-07-02T11:08:14;21.87;;;15.27;;
63555;SDS011;49700;48.072;7.800;2023-07-02T11:10:40;22.33;;;15.57;;
63555;SDS011;49700;48.072;7.800;2023-07-02T11:13:10;23.93;;;14.10;;
63555;SDS011;49700;48.072;7.800;2023-07-02T11:15:39;24.27;;;14.60;;
63555;SDS011;49700;48.072;7.800;2023-07-02T11:18:13;18.90;;;13.17;;
63555;SDS011;49700;48.072;7.800;2023-07-02T11:20:41;24.23;;;14.83;;
63555;SDS011;49700;48.072;7.800;2023-07-02T11:26:02;18.00;;;13.37;;
63555;SDS011;49700;48.072;7.800;2023-07-02T11:28:29;19.50;;;13.13;;
63555;SDS011;49700;48.072;7.800;2023-07-02T11:30:56;19.90;;;12.77;;
63555;SDS011;49700;48.072;7.800;2023-07-02T11:33:33;21.53;;;12.93;;
63555;SDS011;49700;48.072;7.800;2023-07-02T11:36:05;21.17;;;12.70;;
63555;SDS011;49700;48.072;7.800;2023-07-02T11:38:33;15.70;;;11.93;;
63555;SDS011;49700;48.072;7.800;2023-07-02T11:40:59;18.97;;;12.33;;
63555;SDS011;49700;48.072;7.800;2023-07-02T11:43:25;17.23;;;12.90;;
63555;SDS011;49700;48.072;7.800;2023-07-02T11:45:51;23.13;;;13.33;;
63555;SDS011;49700;48.072;7.800;2023-07-02T11:48:16;21.00;;;13.00;;
63555;SDS011;49700;48.072;7.800;2023-07-02T11:50:42;18.83;;;12.50;;
63555;SDS011;49700;48.072;7.800;2023-07-02T11:53:07;19.90;;;13.10;;
63555;SDS011;49700;48.072;7.800;2023-07-02T11:55:32;21.60;;;14.13;;
63555;SDS011;49700;48.072;7.800;2023-07-02T11:57:58;18.60;;;12.70;;
63555;SDS011;49700;48.072;7.800;2023-07-02T12:00:23;17.23;;;13.10;;
63555;SDS011;49700;48.072;7.800;2023-07-02T12:02:48;17.37;;;13.23;;
63555;SDS011;49700;48.072;7.800;2023-07-02T12:05:14;17.30;;;12.00;;
63555;SDS011;49700;48.072;7.800;2023-07-02T12:07:39;19.37;;;12.60;;
63555;SDS011;49700;48.072;7.800;2023-07-02T12:10:06;16.37;;;11.27;;
63555;SDS011;49700;48.072;7.800;2023-07-02T12:12:32;18.20;;;12.67;;
63555;SDS011;49700;48.072;7.800;2023-07-02T12:14:57;21.80;;;12.93;;
63555;SDS011;49700;48.072;7.800;2023-07-02T12:17:23;19.33;;;13.20;;
63555;SDS011;49700;48.072;7.800;2023-07-02T12:19:48;18.90;;;12.20;;
63555;SDS011;49700;48.072;7.800;2023-07-02T12:22:13;17.30;;;12.53;;
63555;SDS011;49700;48.072;7.800;2023-07-02T12:24:43;17.63;;;11.10;;
63555;SDS011;49700;48.072;7.800;2023-07-02T12:27:08;19.30;;;13.97;;
63555;SDS011;49700;48.072;7.800;2023-07-02T12:29:34;18.37;;;12.77;;
63555;SDS011;49700;48.072;7.800;2023-07-02T12:32:00;17.57;;;12.13;;
63555;SDS011;49700;48.072;7.800;2023-07-02T12:34:26;15.20;;;10.83;;
63555;SDS011;49700;48.072;7.800;2023-07-02T12:36:51;17.90;;;11.50;;
63555;SDS011;49700;48.072;7.800;2023-07-02T12:39:17;17.00;;;12.23;;
63555;SDS011;49700;48.072;7.800;2023-07-02T12:41:42;18.03;;;12.30;;
63555;SDS011;49700;48.072;7.800;2023-07-02T12:44:08;14.83;;;10.67;;
63555;SDS011;49700;48.072;7.800;2023-07-02T12:46:33;21.77;;;11.03;;
63555;SDS011;49700;48.072;7.800;2023-07-02T12:48:58;23.53;;;12.00;;
63555;SDS011;49700;48.072;7.800;2023-07-02T12:51:24;14.80;;;12.73;;
63555;SDS011;49700;48.072;7.800;2023-07-02T12:53:49;16.80;;;11.30;;
63555;SDS011;49700;48.072;7.800;2023-07-02T12:56:15;12.77;;;9.70;;
63555;SDS011;49700;48.072;7.800;2023-07-02T12:58:40;15.30;;;11.40;;
63555;SDS011;49700;48.072;7.800;2023-07-02T13:01:05;17.40;;;11.00;;
63555;SDS011;49700;48.072;7.800;2023-07-02T13:03:31;15.20;;;11.00;;
63555;SDS011;49700;48.072;7.800;2023-07-02T13:05:56;18.63;;;11.90;;
63555;SDS011;49700;48.072;7.800;2023-07-02T13:08:22;14.10;;;10.43;;
63555;SDS011;49700;48.072;7.800;2023-07-02T13:10:47;15.50;;;11.17;;
63555;SDS011;49700;48.072;7.800;2023-07-02T13:13:12;16.70;;;10.33;;
63555;SDS011;49700;48.072;7.800;2023-07-02T13:15:38;16.00;;;11.93;;
63555;SDS011;49700;48.072;7.800;2023-07-02T13:18:03;16.60;;;11.23;;
63555;SDS011;49700;48.072;7.800;2023-07-02T13:20:29;16.63;;;11.00;;
63555;SDS011;49700;48.072;7.800;2023-07-02T13:22:55;20.80;;;12.00;;
63555;SDS011;49700;48.072;7.800;2023-07-02T13:25:20;15.23;;;12.63;;
63555;SDS011;49700;48.072;7.800;2023-07-02T13:27:45;14.87;;;11.10;;
63555;SDS011;49700;48.072;7.800;2023-07-02T13:30:11;21.50;;;12.90;;
63555;SDS011;49700;48.072;7.800;2023-07-02T13:32:37;18.87;;;12.97;;
63555;SDS011;49700;48.072;7.800;2023-07-02T13:35:02;16.53;;;12.63;;
63555;SDS011;49700;48.072;7.800;2023-07-02T13:37:28;17.33;;;14.17;;
63555;SDS011;49700;48.072;7.800;2023-07-02T13:39:53;15.87;;;11.20;;
63555;SDS011;49700;48.072;7.800;2023-07-02T13:42:19;19.97;;;12.83;;
63555;SDS011;49700;48.072;7.800;2023-07-02T13:44:44;18.97;;;12.30;;
63555;SDS011;49700;48.072;7.800;2023-07-02T13:47:10;17.80;;;13.23;;
63555;SDS011;49700;48.072;7.800;2023-07-02T13:49:36;14.87;;;11.03;;
63555;SDS011;49700;48.072;7.800;2023-07-02T13:52:02;20.83;;;12.60;;
63555;SDS011;49700;48.072;7.800;2023-07-02T13:54:28;13.77;;;11.97;;
63555;SDS011;49700;48.072;7.800;2023-07-02T13:56:55;18.00;;;12.03;;
63555;SDS011;49700;48.072;7.800;2023-07-02T13:59:21;15.97;;;11.87;;
63555;SDS011;49700;48.072;7.800;2023-07-02T14:01:47;17.50;;;13.13;;
63555;SDS011;49700;48.072;7.800;2023-07-02T14:04:13;17.70;;;12.70;;
63555;SDS011;49700;48.072;7.800;2023-07-02T14:06:43;18.70;;;12.93;;
63555;SDS011;49700;48.072;7.800;2023-07-02T14:09:10;13.47;;;10.70;;
63555;SDS011;49700;48.072;7.800;2023-07-02T14:11:38;17.70;;;12.43;;
63555;SDS011;49700;48.072;7.800;2023-07-02T14:14:05;17.90;;;13.20;;
63555;SDS011;49700;48.072;7.800;2023-07-02T14:16:30;17.47;;;11.50;;
63555;SDS011;49700;48.072;7.800;2023-07-02T14:18:56;20.07;;;12.73;;
63555;SDS011;49700;48.072;7.800;2023-07-02T14:21:21;17.80;;;11.40;;
63555;SDS011;49700;48.072;7.800;2023-07-02T14:23:47;17.13;;;11.23;;
63555;SDS011;49700;48.072;7.800;2023-07-02T14:26:12;12.90;;;11.13;;
63555;SDS011;49700;48.072;7.800;2023-07-02T14:28:38;18.67;;;11.17;;
63555;SDS011;49700;48.072;7.800;2023-07-02T14:31:04;15.17;;;11.43;;
63555;SDS011;49700;48.072;7.800;2023-07-02T14:33:31;15.10;;;11.70;;
63555;SDS011;49700;48.072;7.800;2023-07-02T14:35:58;17.10;;;12.57;;